createdAt,value
2023-04-02T00:03:26.195Z,412.3645484949833
2023-04-02T00:09:45.451Z,396.5117056856187
2023-04-02T00:16:05.176Z,411.7324414715719
2023-04-02T00:22:23.954Z,383.39799331103677
2023-04-02T00:28:42.825Z,406.1638795986622
2023-04-02T00:35:01.873Z,369.5819397993311
2023-04-02T00:41:20.376Z,351.44147157190633
2023-04-02T00:52:04.164Z,369.46153846153845
2023-04-02T00:58:23.991Z,414.82274247491637
2023-04-02T01:09:47.786Z,367.3444816053512
2023-04-02T01:16:05.776Z,343.8561872909699
2023-04-02T01:23:18.889Z,351.7725752508361
2023-04-02T01:29:38.666Z,324.9230769230769
2023-04-02T01:38:03.868Z,370.18394648829434
2023-04-02T01:44:22.960Z,336.39130434782606
2023-04-02T01:50:41.944Z,341.7692307692308
2023-04-02T01:57:01.027Z,324.7725752508361
2023-04-02T02:03:20.196Z,298.0735785953177
2023-04-02T02:20:13.404Z,309.33110367892976
2023-04-02T02:26:36.495Z,310.89632107023414
2023-04-02T02:32:56.788Z,302.628762541806
2023-04-02T02:39:15.804Z,317.6488294314381
2023-04-02T02:48:05.275Z,293.88963210702343
2023-04-02T02:54:23.715Z,305.9799331103679
2023-04-02T03:00:46.511Z,328.47491638795987
2023-04-02T03:12:39.813Z,308.2876254180602
2023-04-02T03:18:59.840Z,306.1404682274248
2023-04-02T03:25:19.138Z,301.03344481605353
2023-04-02T03:31:38.658Z,264.40133779264215
2023-04-02T03:37:58.786Z,298.7257525083612
2023-04-02T03:44:18.220Z,266.68896321070235
2023-04-02T03:50:36.947Z,262.5150501672241
2023-04-02T03:58:13.838Z,254.1772575250836
2023-04-02T04:04:34.519Z,275.5685618729097
2023-04-02T04:14:51.416Z,253.4046822742475
2023-04-02T04:21:10.853Z,262.74581939799333
2023-04-02T04:27:29.722Z,217.39464882943145
2023-04-02T04:33:48.472Z,224.23745819397993
2023-04-02T04:40:07.644Z,229.86622073578596
2023-04-02T04:50:36.896Z,243.7123745819398
2023-04-02T04:59:41.566Z,208.39464882943145
2023-04-02T05:06:00.160Z,220.8963210702341
2023-04-02T05:12:20.230Z,258.33110367892976
2023-04-02T05:18:41.445Z,219.2608695652174
2023-04-02T05:25:03.308Z,230.0267558528428
2023-04-02T05:33:16.302Z,221.30769230769232
2023-04-02T05:39:38.030Z,215.1170568561873
2023-04-02T05:45:59.258Z,202.5752508361204
2023-04-02T05:52:19.775Z,226.93645484949832
2023-04-02T05:59:51.207Z,247.91638795986623
2023-04-02T06:06:14.579Z,203.31772575250835
2023-04-02T06:12:35.887Z,216.08026755852842
2023-04-02T06:18:58.212Z,192.2809364548495
2023-04-02T06:25:19.616Z,214.36454849498327
2023-04-02T06:31:50.694Z,209.25752508361205
2023-04-02T06:43:54.908Z,233.90969899665552
2023-04-02T06:50:16.756Z,222.1103678929766
2023-04-02T06:56:38.832Z,168.30100334448161
2023-04-02T07:03:02.901Z,176.25752508361205
2023-04-02T07:09:27.898Z,173.0066889632107
2023-04-02T07:15:50.978Z,186.50167224080266
2023-04-02T07:22:14.187Z,199.34448160535118
2023-04-02T07:28:36.802Z,205.15384615384616
2023-04-02T07:41:20.826Z,247.20401337792643
2023-04-02T07:47:42.033Z,204.44147157190636
2023-04-02T07:54:03.005Z,166.35451505016724
2023-04-02T08:00:24.312Z,159.18060200668896
2023-04-02T08:06:46.299Z,171.20066889632108
2023-04-02T08:13:07.401Z,198.89297658862876
2023-04-02T08:19:28.203Z,193.00334448160535
2023-04-02T08:31:22.293Z,176.85953177257525
2023-04-02T08:37:43.365Z,150.98327759197323
2023-04-02T08:44:04.728Z,159.93311036789297
2023-04-02T08:50:24.394Z,212.6789297658863
2023-04-02T08:59:51.183Z,200.40802675585283
2023-04-02T09:06:10.613Z,174.42140468227424
2023-04-02T09:12:30.827Z,213.53177257525084
2023-04-02T09:18:52.482Z,185.83946488294313
2023-04-02T09:29:45.017Z,190.0735785953177
2023-04-02T09:37:00.733Z,156.1304347826087
2023-04-02T09:43:21.782Z,353.628762541806
2023-04-02T09:49:51.475Z,145.94648829431438
2023-04-02T10:00:48.316Z,144.9933110367893
2023-04-02T10:07:09.632Z,138.96321070234114
2023-04-02T10:13:31.229Z,163.51505016722408
2023-04-02T10:20:00.010Z,151.1839464882943
2023-04-02T10:26:29.543Z,182.33779264214047
2023-04-02T10:33:10.230Z,232.22408026755852
2023-04-02T10:39:40.045Z,201.92307692307693
2023-04-02T10:46:04.242Z,193.37458193979933
2023-04-02T10:52:25.734Z,178.49498327759198
2023-04-02T10:58:47.068Z,191.57859531772576
2023-04-02T11:07:31.015Z,180.23076923076923
2023-04-02T11:16:44.019Z,223.99665551839465
2023-04-02T11:23:06.034Z,243.93311036789297
2023-04-02T11:29:27.393Z,213.06020066889633
2023-04-02T11:35:48.959Z,201.36120401337791
2023-04-02T11:42:10.641Z,171.8829431438127
2023-04-02T11:54:49.360Z,217.3846153846154
2023-04-02T12:01:10.041Z,193.28428093645485
2023-04-02T12:07:30.508Z,157.66555183946488
2023-04-02T12:13:51.708Z,559.866220735786
2023-04-02T12:24:00.814Z,319.82608695652175
2023-04-02T12:30:20.897Z,214.5752508361204
2023-04-02T12:45:00.664Z,214.55518394648828
2023-04-02T12:51:21.248Z,194.247491638796
2023-04-02T13:02:05.253Z,148.30434782608697
2023-04-02T13:12:48.035Z,206.4581939799331
2023-04-02T13:19:08.268Z,229.7859531772575
2023-04-02T13:25:27.738Z,201.45150501672242
2023-04-02T13:31:48.098Z,194.5685618729097
2023-04-02T13:38:07.954Z,206.2876254180602
2023-04-02T13:44:27.784Z,169.9264214046823
2023-04-02T13:50:47.696Z,182.74916387959865
2023-04-02T13:57:07.663Z,222.18060200668896
2023-04-02T14:05:21.080Z,202.9866220735786
2023-04-02T14:11:40.948Z,162.6722408026756
2023-04-02T14:20:43.639Z,235.95652173913044
2023-04-02T14:27:04.287Z,213.10033444816054
2023-04-02T14:33:24.130Z,201.36120401337791
2023-04-02T14:39:43.809Z,172.8561872909699
2023-04-02T14:48:56.302Z,172.48494983277592
2023-04-02T14:55:16.402Z,212.57859531772576
2023-04-02T15:01:36.858Z,172.7257525083612
2023-04-02T15:07:56.828Z,167.64882943143812
2023-04-02T15:14:17.398Z,166.79598662207357
2023-04-02T15:20:36.633Z,196.04347826086956
2023-04-02T15:26:56.166Z,161.70903010033445
2023-04-02T15:33:15.747Z,173.03678929765886
2023-04-02T15:39:34.938Z,187.09364548494983
2023-04-02T15:45:54.363Z,187.36454849498327
2023-04-02T15:52:14.732Z,171.72240802675586
2023-04-02T16:00:04.643Z,158.53846153846155
2023-04-02T16:13:10.771Z,281.94983277591973
2023-04-02T16:19:30.780Z,205.76588628762542
2023-04-02T16:25:50.724Z,215.35785953177256
2023-04-02T16:32:12.683Z,228.73244147157192
2023-04-02T16:38:32.352Z,249.6722408026756
2023-04-02T16:44:52.921Z,236.22742474916387
2023-04-02T16:51:14.238Z,251.07692307692307
2023-04-02T16:57:35.514Z,223.39464882943145
2023-04-02T17:04:00.966Z,253.5752508361204
2023-04-02T17:17:54.899Z,301.6655518394649
2023-04-02T17:24:16.618Z,263.04682274247494
2023-04-02T17:30:38.441Z,345.24080267558526
2023-04-02T17:37:00.347Z,499.876254180602
2023-04-02T17:43:21.744Z,414.46153846153845
2023-04-02T17:49:43.464Z,340.88628762541805
2023-04-02T17:58:41.888Z,340.97658862876256
2023-04-02T18:05:04.231Z,362.7391304347826
2023-04-02T18:11:23.348Z,518.628762541806
2023-04-02T18:17:42.481Z,456.40133779264215
2023-04-02T18:24:01.902Z,484.46488294314383
2023-04-02T18:34:55.601Z,506.32775919732444
2023-04-02T18:41:15.022Z,582.6622073578595
2023-04-02T18:47:33.888Z,529.5852842809364
2023-04-02T18:53:53.284Z,453.6421404682274
2023-04-02T19:00:13.706Z,462.6220735785953
2023-04-02T19:06:33.337Z,468.83277591973246
2023-04-02T19:20:16.981Z,481.4247491638796
2023-04-02T19:26:36.227Z,496.5150501672241
2023-04-02T19:32:56.660Z,498.75250836120404
2023-04-02T19:39:16.273Z,488.88963210702343
2023-04-02T19:45:36.327Z,426.8026755852843
2023-04-02T19:51:56.576Z,484.60535117056855
2023-04-02T20:08:15.745Z,422.3678929765886
2023-04-02T20:14:37.007Z,369.59197324414714
2023-04-02T20:20:57.815Z,375.24080267558526
2023-04-02T20:27:17.725Z,422.7190635451505
2023-04-02T20:33:38.151Z,530.5785953177258
2023-04-02T20:39:59.139Z,419.88963210702343
2023-04-02T20:51:21.043Z,391.2742474916388
2023-04-02T20:57:41.858Z,445.2943143812709
2023-04-02T21:04:01.720Z,338.52842809364546
2023-04-02T21:10:22.975Z,333.01003344481603
2023-04-02T21:16:44.782Z,369.2608695652174
2023-04-02T21:23:05.319Z,372.39130434782606
2023-04-02T21:29:26.752Z,372.8026755852843
2023-04-02T21:41:14.272Z,400.685618729097
2023-04-02T21:47:35.308Z,389.4782608695652
2023-04-02T21:53:55.504Z,356.94983277591973
2023-04-02T22:00:16.453Z,387.9933110367893
2023-04-02T22:06:36.707Z,339.75250836120404
2023-04-02T22:12:56.808Z,373.1438127090301
2023-04-02T22:20:30.032Z,388.685618729097
2023-04-02T22:26:51.187Z,373.58528428093643
2023-04-02T22:33:11.898Z,382.67558528428094
2023-04-02T22:44:58.532Z,375.2909698996655
2023-04-02T22:51:18.850Z,366.371237458194
2023-04-02T22:57:39.346Z,385.0535117056856
2023-04-02T23:03:59.240Z,390.74247491638795
2023-04-02T23:10:21.436Z,356.2274247491639
2023-04-02T23:16:41.361Z,391.685618729097
2023-04-02T23:23:02.953Z,416.8294314381271
2023-04-02T23:29:22.940Z,410.61872909698997
2023-04-02T23:35:42.743Z,419.7391304347826
2023-04-02T23:42:03.729Z,436.30434782608694
2023-04-02T23:48:22.792Z,397.82608695652175
2023-04-02T23:54:42.842Z,391.0033444816053
